createdAt,value
2023-02-09T00:01:07.205Z,102956.28
2023-02-09T00:03:34.294Z,102962.50
2023-02-09T00:06:00.895Z,102959.09
2023-02-09T00:08:27.559Z,102968.75
2023-02-09T00:10:53.973Z,102961.88
2023-02-09T00:13:21.804Z,102962.78
2023-02-09T00:15:48.614Z,102964.63
2023-02-09T00:18:14.938Z,102965.53
2023-02-09T00:20:41.222Z,102964.72
2023-02-09T00:23:07.512Z,102963.88
2023-02-09T00:25:33.849Z,102966.53
2023-02-09T00:28:00.212Z,102969.22
2023-02-09T00:30:27.903Z,102969.25
2023-02-09T00:32:54.195Z,102968.41
2023-02-09T00:35:20.532Z,102966.69
2023-02-09T00:37:46.870Z,102968.53
2023-02-09T00:40:13.203Z,102965.97
2023-02-09T00:42:39.640Z,102972.97
2023-02-09T00:45:06.492Z,102970.41
2023-02-09T00:47:34.240Z,102974.81
2023-02-09T00:50:00.562Z,102979.22
2023-02-09T00:52:26.845Z,102967.16
2023-02-09T00:54:53.140Z,102976.78
2023-02-09T00:57:19.458Z,102975.94
2023-02-09T00:59:45.736Z,102976.94
2023-02-09T01:02:12.055Z,102984.00
2023-02-09T01:04:39.798Z,102977.16
2023-02-09T01:07:06.123Z,102979.75
2023-02-09T01:09:32.459Z,102978.88
2023-02-09T01:11:58.792Z,102978.94
2023-02-09T01:14:25.108Z,102978.19
2023-02-09T01:16:51.531Z,102978.19
2023-02-09T01:19:17.891Z,102973.84
2023-02-09T01:21:46.747Z,102981.75
2023-02-09T01:24:13.787Z,102984.34
2023-02-09T01:26:40.304Z,102986.13
2023-02-09T01:29:06.602Z,102987.88
2023-02-09T01:31:33.890Z,102987.13
2023-02-09T01:34:01.547Z,102989.78
2023-02-09T01:36:28.422Z,102985.47
2023-02-09T01:38:56.667Z,102981.97
2023-02-09T01:41:23.234Z,102986.31
2023-02-09T01:43:54.320Z,102988.13
2023-02-09T01:46:21.135Z,102988.13
2023-02-09T01:48:49.112Z,102984.69
2023-02-09T01:51:15.454Z,102983.81
2023-02-09T01:53:41.863Z,102976.00
2023-02-09T01:56:11.441Z,102987.28
2023-02-09T01:58:38.153Z,102990.72
2023-02-09T02:01:04.642Z,102988.06
2023-02-09T02:03:31.810Z,102979.38
2023-02-09T02:06:00.025Z,102976.78
2023-02-09T02:08:27.908Z,102966.34
2023-02-09T02:10:54.255Z,102963.75
2023-02-09T02:13:21.967Z,102965.44
2023-02-09T02:15:54.893Z,102973.25
2023-02-09T02:18:28.717Z,102974.16
2023-02-09T02:21:15.001Z,102978.53
2023-02-09T02:23:46.403Z,102979.44
2023-02-09T02:26:33.716Z,102973.38
2023-02-09T02:29:20.014Z,102965.53
2023-02-09T02:32:04.076Z,102955.16
2023-02-09T02:34:35.382Z,102958.63
2023-02-09T02:37:09.264Z,102962.97
2023-02-09T02:39:38.793Z,102953.41
2023-02-09T02:42:10.188Z,102947.28
2023-02-09T02:44:38.843Z,102951.63
2023-02-09T02:47:07.851Z,102953.34
2023-02-09T02:49:37.217Z,102951.63
2023-02-09T02:52:05.256Z,102951.72
2023-02-09T02:54:33.892Z,102958.81
2023-02-09T02:57:01.601Z,102963.19
2023-02-09T02:59:30.457Z,102953.72
2023-02-09T03:01:59.316Z,102939.88
2023-02-09T03:04:28.225Z,102942.47
2023-02-09T03:06:54.525Z,102944.25
2023-02-09T03:09:20.820Z,102945.09
2023-02-09T03:11:49.256Z,102939.00
2023-02-09T03:14:23.743Z,102947.59
2023-02-09T03:16:57.269Z,102951.06
2023-02-09T03:19:28.931Z,102944.06
2023-02-09T03:21:58.674Z,102946.66
2023-02-09T03:24:30.456Z,102940.56
2023-02-09T03:26:58.513Z,102935.28
2023-02-09T03:29:25.746Z,102932.66
2023-02-09T03:31:52.242Z,102931.75
2023-02-09T03:34:18.736Z,102926.53
2023-02-09T03:36:45.385Z,102927.44
2023-02-09T03:39:13.021Z,102923.97
2023-02-09T03:41:39.350Z,102928.31
2023-02-09T03:44:05.666Z,102928.31
2023-02-09T03:46:32.034Z,102926.56
2023-02-09T03:48:58.386Z,102919.66
2023-02-09T03:51:24.758Z,102929.34
2023-02-09T03:53:51.058Z,102926.91
2023-02-09T03:56:18.754Z,102926.13
2023-02-09T03:58:45.072Z,102920.97
2023-02-09T04:01:11.712Z,102922.72
2023-02-09T04:03:38.362Z,102918.38
2023-02-09T04:06:05.036Z,102909.69
2023-02-09T04:08:31.373Z,102915.78
2023-02-09T04:10:57.678Z,102921.00
2023-02-09T04:13:25.871Z,102922.75
2023-02-09T04:15:52.404Z,102917.66
2023-02-09T04:18:18.756Z,102915.06
2023-02-09T04:20:45.618Z,102914.22
2023-02-09T04:23:12.214Z,102909.09
2023-02-09T04:25:38.519Z,102903.81
2023-02-09T04:28:05.120Z,102908.13
2023-02-09T04:30:32.902Z,102908.06
2023-02-09T04:32:59.213Z,102907.13
2023-02-09T04:35:25.537Z,102905.34
2023-02-09T04:37:51.837Z,102901.84
2023-02-09T04:40:18.185Z,102896.59
2023-02-09T04:42:44.865Z,102896.56
2023-02-09T04:45:11.314Z,102891.31
2023-02-09T04:47:38.995Z,102892.16
2023-02-09T04:50:05.614Z,102894.66
2023-02-09T04:52:32.366Z,102885.97
2023-02-09T04:54:58.706Z,102877.28
2023-02-09T04:57:25.050Z,102866.00
2023-02-09T04:59:51.330Z,102871.22
2023-02-09T05:02:17.660Z,102869.47
2023-02-09T05:04:45.285Z,102868.59
2023-02-09T05:07:11.622Z,102871.19
2023-02-09T05:09:37.979Z,102860.78
2023-02-09T05:12:04.375Z,102858.22
2023-02-09T05:14:30.737Z,102866.03
2023-02-09T05:16:57.071Z,102859.13
2023-02-09T05:19:23.454Z,102870.41
2023-02-09T05:21:51.170Z,102878.28
2023-02-09T05:24:17.460Z,102880.19
2023-02-09T05:26:43.756Z,102888.91
2023-02-09T05:29:10.090Z,102881.13
2023-02-09T05:31:36.598Z,102887.19
2023-02-09T05:34:03.006Z,102889.78
2023-02-09T05:36:29.346Z,102876.75
2023-02-09T05:38:56.996Z,102871.53
2023-02-09T05:41:23.321Z,102888.00
2023-02-09T05:43:49.653Z,102881.94
2023-02-09T05:46:16.004Z,102895.81
2023-02-09T05:48:42.344Z,102892.44
2023-02-09T05:51:08.685Z,102888.28
2023-02-09T05:53:34.987Z,102870.09
2023-02-09T05:56:02.723Z,102880.47
2023-02-09T05:58:29.049Z,102886.53
2023-02-09T06:00:55.351Z,102878.78
2023-02-09T06:03:21.662Z,102890.91
2023-02-09T06:05:47.979Z,102900.44
2023-02-09T06:08:14.506Z,102893.56
2023-02-09T06:10:40.790Z,102903.97
2023-02-09T06:13:08.471Z,102916.97
2023-02-09T06:15:34.843Z,102919.63
2023-02-09T06:18:01.251Z,102925.72
2023-02-09T06:20:27.564Z,102920.53
2023-02-09T06:22:53.858Z,102921.38
2023-02-09T06:25:20.157Z,102917.94
2023-02-09T06:27:46.583Z,102914.47
2023-02-09T06:30:14.560Z,102918.78
2023-02-09T06:32:40.904Z,102917.91
2023-02-09T06:35:07.383Z,102904.91
2023-02-09T06:37:33.694Z,102909.25
2023-02-09T06:40:00.032Z,102904.94
2023-02-09T06:42:28.301Z,102902.34
2023-02-09T06:44:55.287Z,102902.34
2023-02-09T06:47:22.933Z,102891.06
2023-02-09T06:49:49.235Z,102886.72
2023-02-09T06:52:15.640Z,102883.25
2023-02-09T06:54:43.120Z,102881.53
2023-02-09T06:57:10.628Z,102891.03
2023-02-09T06:59:36.957Z,102893.63
2023-02-09T07:02:03.331Z,102893.63
2023-02-09T07:04:31.043Z,102895.28
2023-02-09T07:06:57.416Z,102901.34
2023-02-09T07:09:23.731Z,102912.59
2023-02-09T07:11:50.097Z,102908.34
2023-02-09T07:14:16.472Z,102919.63
2023-02-09T07:16:42.791Z,102934.38
2023-02-09T07:19:09.088Z,102927.44
2023-02-09T07:21:36.770Z,102938.63
2023-02-09T07:24:03.225Z,102942.09
2023-02-09T07:26:29.575Z,102937.75
2023-02-09T07:28:55.900Z,102947.25
2023-02-09T07:31:22.362Z,102947.22
2023-02-09T07:33:48.764Z,102946.34
2023-02-09T07:36:16.317Z,102959.25
2023-02-09T07:38:44.299Z,102949.59
2023-02-09T07:41:13.270Z,102952.09
2023-02-09T07:43:39.612Z,102963.28
2023-02-09T07:46:07.130Z,102955.47
2023-02-09T07:48:33.792Z,102951.06
2023-02-09T07:51:00.406Z,102947.53
2023-02-09T07:53:26.924Z,102945.69
2023-02-09T07:55:54.686Z,102952.50
2023-02-09T07:58:21.440Z,102958.53
2023-02-09T08:00:48.621Z,102955.81
2023-02-09T08:03:15.790Z,102956.59
2023-02-09T08:05:45.792Z,102962.53
2023-02-09T08:08:12.447Z,102962.47
2023-02-09T08:10:39.226Z,102964.94
2023-02-09T08:13:06.863Z,102964.81
2023-02-09T08:15:37.147Z,102962.97
2023-02-09T08:18:05.069Z,102972.41
2023-02-09T08:20:31.988Z,102981.81
2023-02-09T08:23:01.810Z,102973.03
2023-02-09T08:25:28.131Z,102980.72
2023-02-09T08:27:56.103Z,102981.44
2023-02-09T08:30:23.791Z,102983.13
2023-02-09T08:32:50.155Z,102977.78
2023-02-09T08:35:16.493Z,102982.91
2023-02-09T08:37:42.814Z,102981.94
2023-02-09T08:40:09.458Z,102982.69
2023-02-09T08:42:35.792Z,102974.75
2023-02-09T08:45:02.095Z,102977.22
2023-02-09T08:47:29.772Z,102972.72
2023-02-09T08:49:56.079Z,102959.63
2023-02-09T08:52:22.357Z,102960.31
2023-02-09T08:54:48.716Z,102968.88
2023-02-09T08:57:15.052Z,102960.88
2023-02-09T08:59:41.546Z,102959.84
2023-02-09T09:02:07.873Z,102953.59
2023-02-09T09:04:35.513Z,102950.78
2023-02-09T09:07:01.820Z,102950.59
2023-02-09T09:09:28.160Z,102947.81
2023-02-09T09:11:54.497Z,102950.22
2023-02-09T09:14:20.798Z,102961.38
2023-02-09T09:16:47.186Z,102945.53
2023-02-09T09:19:13.527Z,102950.56
2023-02-09T09:21:41.181Z,102950.47
2023-02-09T09:24:07.567Z,102948.53
2023-02-09T09:26:34.010Z,102965.84
2023-02-09T09:29:00.348Z,102953.50
2023-02-09T09:31:26.818Z,102948.03
2023-02-09T09:33:53.169Z,102937.38
2023-02-09T09:36:19.449Z,102949.38
2023-02-09T09:38:47.097Z,102942.22
2023-02-09T09:41:21.090Z,102945.53
2023-02-09T09:43:47.579Z,102940.88
2023-02-09T09:46:16.182Z,102946.75
2023-02-09T09:48:44.071Z,102943.09
2023-02-09T09:51:12.290Z,102945.56
2023-02-09T09:53:40.539Z,102947.22
2023-02-09T09:56:09.521Z,102953.09
2023-02-09T09:58:39.366Z,102950.25
2023-02-09T10:01:05.725Z,102951.81
2023-02-09T10:03:32.065Z,102952.47
2023-02-09T10:06:00.622Z,102955.78
2023-02-09T10:08:29.948Z,102973.84
2023-02-09T10:10:57.305Z,102967.31
2023-02-09T10:13:25.876Z,102962.72
2023-02-09T10:15:53.268Z,102981.72
2023-02-09T10:18:19.901Z,102976.38
2023-02-09T10:20:47.614Z,102967.47
2023-02-09T10:23:17.743Z,102970.06
2023-02-09T10:25:51.442Z,102978.78
2023-02-09T10:28:18.648Z,102976.81
2023-02-09T10:30:46.763Z,102973.19
2023-02-09T10:33:14.217Z,102988.75
2023-02-09T10:35:43.409Z,102991.97
2023-02-09T10:38:15.101Z,102991.63
2023-02-09T10:40:41.796Z,102981.75
2023-02-09T10:43:18.421Z,102996.47
2023-02-09T10:45:47.455Z,103003.28
2023-02-09T10:48:17.108Z,102998.66
2023-02-09T10:50:48.429Z,102996.72
2023-02-09T10:53:18.823Z,102992.19
2023-02-09T10:55:45.406Z,102994.69
2023-02-09T10:58:17.958Z,102995.41
2023-02-09T11:00:48.517Z,102979.44
2023-02-09T11:03:16.433Z,102976.63
2023-02-09T11:05:43.783Z,102977.44
2023-02-09T11:08:14.162Z,102965.09
2023-02-09T11:10:43.053Z,102967.63
2023-02-09T11:13:16.369Z,102978.88
2023-02-09T11:15:46.749Z,102981.25
2023-02-09T11:18:16.787Z,102974.00
2023-02-09T11:20:45.748Z,102971.88
2023-02-09T11:23:23.070Z,102964.53
2023-02-09T11:25:54.343Z,102974.75
2023-02-09T11:28:28.981Z,102981.56
2023-02-09T11:31:03.898Z,102970.81
2023-02-09T11:33:39.413Z,102964.59
2023-02-09T11:36:14.529Z,102981.00
2023-02-09T11:38:44.870Z,102974.75
2023-02-09T11:41:13.260Z,102977.13
2023-02-09T11:43:41.119Z,102964.69
2023-02-09T11:46:12.184Z,102966.19
2023-02-09T11:48:43.162Z,102952.88
2023-02-09T11:51:11.690Z,102956.25
2023-02-09T11:53:42.467Z,102945.69
2023-02-09T11:56:10.705Z,102954.25
2023-02-09T11:58:40.333Z,102958.28
2023-02-09T12:01:15.842Z,102963.25
2023-02-09T12:03:50.039Z,102963.91
2023-02-09T12:06:17.299Z,102950.63
2023-02-09T12:08:49.120Z,102957.53
2023-02-09T12:11:21.986Z,102963.53
2023-02-09T12:13:55.920Z,102967.81
2023-02-09T12:16:24.549Z,102977.25
2023-02-09T12:18:53.190Z,102963.88
2023-02-09T12:21:27.051Z,102961.78
2023-02-09T12:23:53.401Z,102958.00
2023-02-09T12:26:27.103Z,102961.22
2023-02-09T12:28:57.888Z,102967.09
2023-02-09T12:31:26.021Z,102968.59
2023-02-09T12:34:11.064Z,102964.78
2023-02-09T12:36:58.659Z,102972.53
2023-02-09T12:39:25.808Z,102968.84
2023-02-09T12:42:09.762Z,102964.38
2023-02-09T12:44:36.940Z,102958.84
2023-02-09T12:47:03.287Z,102945.34
2023-02-09T12:49:32.926Z,102958.19
2023-02-09T12:52:14.464Z,102957.97
2023-02-09T12:54:42.523Z,102955.19
2023-02-09T12:57:27.780Z,102958.41
2023-02-09T13:00:09.001Z,102951.94
2023-02-09T13:02:37.004Z,102945.94
2023-02-09T13:05:07.245Z,102940.63
2023-02-09T13:07:40.007Z,102938.84
2023-02-09T13:10:13.492Z,102937.91
2023-02-09T13:12:42.343Z,102933.50
2023-02-09T13:15:12.500Z,102942.28
2023-02-09T13:17:39.604Z,102938.00
2023-02-09T13:20:20.805Z,102939.03
2023-02-09T13:22:56.894Z,102922.47
2023-02-09T13:25:29.349Z,102932.91
2023-02-09T13:27:55.710Z,102930.28
2023-02-09T13:30:26.223Z,102939.03
2023-02-09T13:32:58.236Z,102931.22
2023-02-09T13:35:27.296Z,102933.63
2023-02-09T13:37:56.582Z,102934.44
2023-02-09T13:40:24.267Z,102921.38
2023-02-09T13:42:52.658Z,102923.03
2023-02-09T13:45:19.215Z,102924.88
2023-02-09T13:47:45.668Z,102925.88
2023-02-09T13:50:13.887Z,102920.75
2023-02-09T13:52:40.408Z,102919.03
2023-02-09T13:55:12.642Z,102920.94
2023-02-09T13:57:40.605Z,102926.28
2023-02-09T14:00:09.766Z,102916.66
2023-02-09T14:02:37.670Z,102909.69
2023-02-09T14:05:06.890Z,102918.63
2023-02-09T14:07:33.912Z,102930.06
2023-02-09T14:10:02.786Z,102935.34
2023-02-09T14:12:36.900Z,102937.13
2023-02-09T14:15:03.456Z,102930.13
2023-02-09T14:17:30.956Z,102928.41
2023-02-09T14:19:58.340Z,102933.63
2023-02-09T14:22:32.081Z,102943.25
2023-02-09T14:24:58.780Z,102948.44
2023-02-09T14:27:26.737Z,102943.06
2023-02-09T14:29:54.840Z,102949.06
2023-02-09T14:32:32.426Z,102948.09
2023-02-09T14:35:00.496Z,102952.44
2023-02-09T14:37:28.264Z,102948.88
2023-02-09T14:39:55.445Z,102953.34
2023-02-09T14:42:22.193Z,102963.16
2023-02-09T14:44:50.814Z,102953.56
2023-02-09T14:47:29.186Z,102952.56
2023-02-09T14:49:56.341Z,102956.19
2023-02-09T14:52:23.983Z,102960.59
2023-02-09T14:54:50.357Z,102962.53
2023-02-09T14:57:16.734Z,102963.44
2023-02-09T14:59:43.040Z,102965.34
2023-02-09T15:02:15.022Z,102959.34
2023-02-09T15:04:42.737Z,102961.22
2023-02-09T15:07:11.903Z,102957.78
2023-02-09T15:09:38.568Z,102965.69
2023-02-09T15:12:05.992Z,102963.91
2023-02-09T15:14:33.658Z,102968.34
2023-02-09T15:16:59.949Z,102964.91
2023-02-09T15:19:26.252Z,102966.63
2023-02-09T15:22:06.688Z,102964.78
2023-02-09T15:24:34.042Z,102958.72
2023-02-09T15:27:01.002Z,102958.84
2023-02-09T15:29:27.414Z,102959.69
2023-02-09T15:31:55.641Z,102952.72
2023-02-09T15:34:21.963Z,102960.69
2023-02-09T15:36:48.308Z,102958.97
2023-02-09T15:39:18.797Z,102968.66
2023-02-09T15:41:45.136Z,102961.59
2023-02-09T15:44:13.929Z,102958.03
2023-02-09T15:46:40.370Z,102968.66
2023-02-09T15:49:06.727Z,102975.63
2023-02-09T15:51:34.926Z,102983.69
2023-02-09T15:54:02.679Z,102991.63
2023-02-09T15:56:30.385Z,102995.13
2023-02-09T15:58:56.698Z,102992.50
2023-02-09T16:01:23.098Z,102991.75
2023-02-09T16:03:49.414Z,103001.50
2023-02-09T16:06:17.467Z,103001.66
2023-02-09T16:08:44.136Z,103006.13
2023-02-09T16:11:16.266Z,103004.53
2023-02-09T16:13:43.890Z,103012.53
2023-02-09T16:16:17.079Z,103016.09
2023-02-09T16:18:44.281Z,103017.09
2023-02-09T16:21:13.988Z,103021.63
2023-02-09T16:23:40.409Z,103022.53
2023-02-09T16:26:06.712Z,103028.72
2023-02-09T16:28:33.108Z,103026.06
2023-02-09T16:31:00.857Z,103019.91
2023-02-09T16:33:27.206Z,103032.31
2023-02-09T16:35:54.642Z,103031.56
2023-02-09T16:38:21.719Z,103039.50
2023-02-09T16:40:48.308Z,103033.50
2023-02-09T16:43:14.804Z,103045.84
2023-02-09T16:45:48.488Z,103048.53
2023-02-09T16:48:23.560Z,103049.44
2023-02-09T16:50:50.805Z,103047.78
2023-02-09T16:53:19.012Z,103047.88
2023-02-09T16:55:48.109Z,103057.56
2023-02-09T16:58:15.951Z,103047.94
2023-02-09T17:00:43.648Z,103054.06
2023-02-09T17:03:13.756Z,103065.50
2023-02-09T17:05:43.100Z,103066.41
2023-02-09T17:08:11.995Z,103076.94
2023-02-09T17:10:38.319Z,103071.69
2023-02-09T17:13:04.615Z,103076.94
2023-02-09T17:15:34.520Z,103078.66
2023-02-09T17:18:03.773Z,103083.06
2023-02-09T17:20:32.664Z,103087.47
2023-02-09T17:23:00.318Z,103095.34
2023-02-09T17:25:26.699Z,103092.72
2023-02-09T17:27:53.091Z,103099.69
2023-02-09T17:30:19.629Z,103096.16
2023-02-09T17:32:48.310Z,103100.56
2023-02-09T17:35:15.299Z,103107.47
2023-02-09T17:37:42.211Z,103108.28
2023-02-09T17:40:13.340Z,103111.81
2023-02-09T17:42:41.208Z,103105.72
2023-02-09T17:45:13.901Z,103115.38
2023-02-09T17:47:40.213Z,103121.50
2023-02-09T17:50:06.702Z,103118.00
2023-02-09T17:52:32.996Z,103118.91
2023-02-09T17:54:59.294Z,103122.47
2023-02-09T17:57:25.644Z,103127.78
2023-02-09T17:59:53.280Z,103124.28
2023-02-09T18:02:19.589Z,103134.81
2023-02-09T18:04:46.125Z,103129.56
2023-02-09T18:07:12.570Z,103130.31
2023-02-09T18:09:38.910Z,103128.59
2023-02-09T18:12:08.002Z,103128.59
2023-02-09T18:14:34.410Z,103133.91
2023-02-09T18:17:02.246Z,103133.91
2023-02-09T18:19:28.705Z,103134.81
2023-02-09T18:21:56.014Z,103137.50
2023-02-09T18:24:23.625Z,103140.13
2023-02-09T18:26:50.145Z,103132.28
2023-02-09T18:29:16.483Z,103143.72
2023-02-09T18:31:42.844Z,103134.97
2023-02-09T18:34:10.546Z,103137.59
2023-02-09T18:36:36.847Z,103140.25
2023-02-09T18:39:03.390Z,103149.00
2023-02-09T18:41:29.756Z,103143.72
2023-02-09T18:43:56.335Z,103145.44
2023-02-09T18:46:23.134Z,103148.06
2023-02-09T18:48:49.613Z,103158.59
2023-02-09T18:51:17.440Z,103151.63
2023-02-09T18:53:43.725Z,103164.78
2023-02-09T18:56:13.487Z,103162.22
2023-02-09T18:58:39.825Z,103166.53
2023-02-09T19:01:09.499Z,103165.72
2023-02-09T19:03:35.799Z,103170.03
2023-02-09T19:06:02.103Z,103174.44
2023-02-09T19:08:29.779Z,103179.66
2023-02-09T19:10:56.101Z,103173.53
2023-02-09T19:13:22.382Z,103172.66
2023-02-09T19:15:49.037Z,103177.94
2023-02-09T19:18:15.601Z,103177.94
2023-02-09T19:20:41.937Z,103191.94
2023-02-09T19:23:08.219Z,103191.94
2023-02-09T19:25:36.120Z,103193.66
2023-02-09T19:28:02.495Z,103202.34
2023-02-09T19:30:28.823Z,103194.50
2023-02-09T19:32:56.155Z,103197.19
2023-02-09T19:35:22.470Z,103196.34
2023-02-09T19:37:52.311Z,103198.91
2023-02-09T19:40:18.698Z,103205.03
2023-02-09T19:42:46.350Z,103195.44
2023-02-09T19:45:12.676Z,103196.28
2023-02-09T19:47:38.969Z,103198.09
2023-02-09T19:50:05.618Z,103190.41
2023-02-09T19:52:32.003Z,103203.66
2023-02-09T19:54:58.304Z,103208.06
2023-02-09T19:57:24.634Z,103216.88
2023-02-09T19:59:52.662Z,103213.38
2023-02-09T20:02:19.002Z,103224.81
2023-02-09T20:04:45.384Z,103216.88
2023-02-09T20:07:12.369Z,103227.34
2023-02-09T20:09:38.699Z,103225.56
2023-02-09T20:12:05.312Z,103227.28
2023-02-09T20:14:33.143Z,103231.63
2023-02-09T20:17:01.330Z,103235.06
2023-02-09T20:19:27.786Z,103233.31
2023-02-09T20:21:54.121Z,103231.47
2023-02-09T20:24:20.462Z,103231.34
2023-02-09T20:26:47.054Z,103224.25
2023-02-09T20:29:13.460Z,103232.97
2023-02-09T20:31:40.847Z,103232.97
2023-02-09T20:34:09.962Z,103246.91
2023-02-09T20:36:38.113Z,103237.25
2023-02-09T20:39:04.605Z,103238.13
2023-02-09T20:41:31.116Z,103229.31
2023-02-09T20:43:57.445Z,103233.72
2023-02-09T20:46:24.819Z,103232.84
2023-02-09T20:48:51.216Z,103233.78
2023-02-09T20:51:18.986Z,103242.56
2023-02-09T20:53:45.309Z,103236.50
2023-02-09T20:56:12.151Z,103240.09
2023-02-09T20:58:38.492Z,103248.94
2023-02-09T21:01:05.287Z,103247.25
2023-02-09T21:03:31.630Z,103258.75
2023-02-09T21:05:57.942Z,103244.84
2023-02-09T21:08:25.579Z,103244.94
2023-02-09T21:10:54.621Z,103252.97
2023-02-09T21:13:20.979Z,103255.81
2023-02-09T21:15:47.305Z,103252.53
2023-02-09T21:18:13.598Z,103255.50
2023-02-09T21:20:39.888Z,103261.00
2023-02-09T21:23:06.193Z,103262.13
2023-02-09T21:25:33.986Z,103261.41
2023-02-09T21:28:00.532Z,103258.19
2023-02-09T21:30:27.587Z,103255.75
2023-02-09T21:32:54.164Z,103255.75
2023-02-09T21:35:20.878Z,103261.13
2023-02-09T21:37:47.235Z,103260.28
2023-02-09T21:40:13.697Z,103263.91
2023-02-09T21:42:41.783Z,103269.25
2023-02-09T21:45:08.499Z,103270.03
2023-02-09T21:47:35.590Z,103270.03
2023-02-09T21:50:01.945Z,103264.00
2023-02-09T21:52:28.613Z,103264.81
2023-02-09T21:54:55.142Z,103266.53
2023-02-09T21:57:21.778Z,103270.94
2023-02-09T21:59:49.466Z,103272.78
2023-02-09T22:02:16.657Z,103275.53
2023-02-09T22:04:43.349Z,103273.88
2023-02-09T22:07:09.879Z,103271.44
2023-02-09T22:09:36.486Z,103275.06
2023-02-09T22:12:03.470Z,103280.50
2023-02-09T22:14:29.811Z,103279.75
2023-02-09T22:16:57.604Z,103279.81
2023-02-09T22:19:24.319Z,103272.84
2023-02-09T22:21:50.721Z,103283.38
2023-02-09T22:24:17.765Z,103289.38
2023-02-09T22:26:44.322Z,103281.22
2023-02-09T22:29:11.760Z,103283.72
2023-02-09T22:31:38.178Z,103290.53
2023-02-09T22:34:06.130Z,103287.78
2023-02-09T22:36:32.770Z,103283.28
2023-02-09T22:38:59.070Z,103279.59
2023-02-09T22:41:25.366Z,103266.31
2023-02-09T22:43:52.248Z,103274.00
2023-02-09T22:46:19.283Z,103266.91
2023-02-09T22:48:49.453Z,103265.03
2023-02-09T22:51:17.249Z,103269.22
2023-02-09T22:53:43.743Z,103275.28
2023-02-09T22:56:10.080Z,103279.63
2023-02-09T22:58:36.387Z,103271.66
2023-02-09T23:01:02.787Z,103277.69
2023-02-09T23:03:29.110Z,103280.22
2023-02-09T23:05:55.429Z,103281.88
2023-02-09T23:08:23.203Z,103288.91
2023-02-09T23:10:49.523Z,103295.09
2023-02-09T23:13:15.830Z,103297.72
2023-02-09T23:15:42.180Z,103300.25
2023-02-09T23:18:08.542Z,103294.06
2023-02-09T23:20:34.842Z,103299.16
2023-02-09T23:23:01.154Z,103309.47
2023-02-09T23:25:29.150Z,103298.78
2023-02-09T23:27:55.490Z,103298.69
2023-02-09T23:30:21.860Z,103293.47
2023-02-09T23:32:48.174Z,103303.09
2023-02-09T23:35:14.679Z,103306.63
2023-02-09T23:37:41.008Z,103308.44
2023-02-09T23:40:07.737Z,103302.31
2023-02-09T23:42:35.409Z,103304.72
2023-02-09T23:45:01.751Z,103310.22
2023-02-09T23:47:28.067Z,103311.19
2023-02-09T23:49:54.396Z,103313.03
2023-02-09T23:52:20.742Z,103315.66
2023-02-09T23:54:47.022Z,103317.38
2023-02-09T23:57:13.297Z,103302.47
2023-02-09T23:59:40.963Z,103304.22
